ENTY weather

Tynset Airport
Tynset, Hedmark, Norway

Public forecast

Using degrees Celsius for public forecast. Weather courtesy of forecast.io.

METAR (pilot weather report)

Closest report is Røros Airport, 26.9 nm (49.8 km) NE. Retrieved 2019/07/23 13:50 UTC (1 hour ago):

ENRO 231350Z VRB03KT 9999 SCT031 SCT050 20/13 Q1017

TAF (pilot weather forecast)

Closest forecast is Trondheim Airport Værnes, 72.4 nm (134.2 km) N. Retrieved 2019/07/23 12:57 UTC (2 hours ago):

TAF ENVA 231100Z 2312/2412 27008KT 9999 FEW020 SCT040